sensor_id;sensor_type;location;lat;lon;timestamp;temperature;humidity
67862;DHT22;54665;51.462;6.698;2023-03-01T00:01:19;-0.34;74.79
67862;DHT22;54665;51.462;6.698;2023-03-01T00:03:45;-0.40;74.56
67862;DHT22;54665;51.462;6.698;2023-03-01T00:06:11;-0.25;74.56
67862;DHT22;54665;51.462;6.698;2023-03-01T00:08:37;-0.27;74.46
67862;DHT22;54665;51.462;6.698;2023-03-01T00:13:33;-0.03;73.90
67862;DHT22;54665;51.462;6.698;2023-03-01T00:16:02;0.04;73.28
67862;DHT22;54665;51.462;6.698;2023-03-01T00:18:28;-0.03;73.32
67862;DHT22;54665;51.462;6.698;2023-03-01T00:20:55;-0.06;73.35
67862;DHT22;54665;51.462;6.698;2023-03-01T00:23:21;-0.15;73.34
67862;DHT22;54665;51.462;6.698;2023-03-01T00:25:46;-0.25;73.81
67862;DHT22;54665;51.462;6.698;2023-03-01T00:28:12;-0.38;74.48
67862;DHT22;54665;51.462;6.698;2023-03-01T00:30:38;-0.25;74.61
67862;DHT22;54665;51.462;6.698;2023-03-01T00:33:03;-0.27;74.11
67862;DHT22;54665;51.462;6.698;2023-03-01T00:35:29;-0.44;74.22
67862;DHT22;54665;51.462;6.698;2023-03-01T00:37:57;-0.56;74.89
67862;DHT22;54665;51.462;6.698;2023-03-01T00:40:24;-0.58;75.66
67862;DHT22;54665;51.462;6.698;2023-03-01T00:42:49;-0.61;75.29
67862;DHT22;54665;51.462;6.698;2023-03-01T00:45:15;-0.76;75.76
67862;DHT22;54665;51.462;6.698;2023-03-01T00:47:41;-0.87;75.89
67862;DHT22;54665;51.462;6.698;2023-03-01T00:50:07;-0.92;76.43
67862;DHT22;54665;51.462;6.698;2023-03-01T00:52:32;-1.02;77.00
67862;DHT22;54665;51.462;6.698;2023-03-01T00:54:58;-1.11;76.73
67862;DHT22;54665;51.462;6.698;2023-03-01T00:57:23;-1.19;77.22
67862;DHT22;54665;51.462;6.698;2023-03-01T00:59:49;-1.24;77.63
67862;DHT22;54665;51.462;6.698;2023-03-01T01:02:14;-1.19;78.73
67862;DHT22;54665;51.462;6.698;2023-03-01T01:04:40;-1.19;78.20
67862;DHT22;54665;51.462;6.698;2023-03-01T01:07:06;-1.24;78.44
67862;DHT22;54665;51.462;6.698;2023-03-01T01:09:31;-1.27;78.42
67862;DHT22;54665;51.462;6.698;2023-03-01T01:11:57;-1.31;78.89
67862;DHT22;54665;51.462;6.698;2023-03-01T01:14:22;-1.38;78.47
67862;DHT22;54665;51.462;6.698;2023-03-01T01:16:47;-1.48;78.97
67862;DHT22;54665;51.462;6.698;2023-03-01T01:19:13;-1.52;79.34
67862;DHT22;54665;51.462;6.698;2023-03-01T01:21:39;-1.56;79.31
67862;DHT22;54665;51.462;6.698;2023-03-01T01:24:06;-1.50;79.32
67862;DHT22;54665;51.462;6.698;2023-03-01T01:26:33;-1.53;79.50
67862;DHT22;54665;51.462;6.698;2023-03-01T01:29:00;-1.56;79.63
67862;DHT22;54665;51.462;6.698;2023-03-01T01:31:26;-1.56;79.80
67862;DHT22;54665;51.462;6.698;2023-03-01T01:33:52;-1.58;79.38
67862;DHT22;54665;51.462;6.698;2023-03-01T01:36:18;-1.64;79.42
67862;DHT22;54665;51.462;6.698;2023-03-01T01:38:44;-1.73;79.48
67862;DHT22;54665;51.462;6.698;2023-03-01T01:41:11;-1.84;79.71
67862;DHT22;54665;51.462;6.698;2023-03-01T01:43:48;-1.87;80.17
67862;DHT22;54665;51.462;6.698;2023-03-01T01:48:57;-1.73;79.74
67862;DHT22;54665;51.462;6.698;2023-03-01T01:51:27;-1.79;79.83
67862;DHT22;54665;51.462;6.698;2023-03-01T01:53:59;-1.74;80.12
67862;DHT22;54665;51.462;6.698;2023-03-01T01:56:26;-1.71;80.08
67862;DHT22;54665;51.462;6.698;2023-03-01T01:58:52;-1.70;80.11
67862;DHT22;54665;51.462;6.698;2023-03-01T02:01:19;-1.67;80.15
67862;DHT22;54665;51.462;6.698;2023-03-01T02:03:45;-1.74;80.78
67862;DHT22;54665;51.462;6.698;2023-03-01T02:06:13;-1.76;80.30
67862;DHT22;54665;51.462;6.698;2023-03-01T02:08:41;-1.73;80.95
67862;DHT22;54665;51.462;6.698;2023-03-01T02:11:08;-1.55;80.28
67862;DHT22;54665;51.462;6.698;2023-03-01T02:13:35;-1.35;79.21
67862;DHT22;54665;51.462;6.698;2023-03-01T02:16:08;-1.18;78.74
67862;DHT22;54665;51.462;6.698;2023-03-01T02:18:34;-1.07;77.90
67862;DHT22;54665;51.462;6.698;2023-03-01T02:23:38;-1.09;77.71
67862;DHT22;54665;51.462;6.698;2023-03-01T02:26:09;-0.97;77.24
67862;DHT22;54665;51.462;6.698;2023-03-01T02:28:38;-1.04;77.02
67862;DHT22;54665;51.462;6.698;2023-03-01T02:31:07;-0.89;76.44
67862;DHT22;54665;51.462;6.698;2023-03-01T02:33:51;-1.02;76.43
67862;DHT22;54665;51.462;6.698;2023-03-01T02:36:31;-1.19;76.91
67862;DHT22;54665;51.462;6.698;2023-03-01T02:39:02;-1.31;77.37
67862;DHT22;54665;51.462;6.698;2023-03-01T02:41:31;-1.39;77.76
67862;DHT22;54665;51.462;6.698;2023-03-01T02:43:57;-1.49;78.14
67862;DHT22;54665;51.462;6.698;2023-03-01T02:46:25;-1.58;78.72
67862;DHT22;54665;51.462;6.698;2023-03-01T02:48:56;-1.63;78.51
67862;DHT22;54665;51.462;6.698;2023-03-01T02:54:39;-1.64;78.84
67862;DHT22;54665;51.462;6.698;2023-03-01T02:57:06;-1.63;78.37
67862;DHT22;54665;51.462;6.698;2023-03-01T02:59:35;-1.69;78.46
67862;DHT22;54665;51.462;6.698;2023-03-01T03:02:07;-1.73;78.99
67862;DHT22;54665;51.462;6.698;2023-03-01T03:04:32;-1.79;79.57
67862;DHT22;54665;51.462;6.698;2023-03-01T03:06:58;-1.69;79.44
67862;DHT22;54665;51.462;6.698;2023-03-01T03:09:25;-1.66;79.54
67862;DHT22;54665;51.462;6.698;2023-03-01T03:11:50;-1.55;79.20
67862;DHT22;54665;51.462;6.698;2023-03-01T03:14:16;-1.58;78.86
67862;DHT22;54665;51.462;6.698;2023-03-01T03:16:47;-1.62;79.06
67862;DHT22;54665;51.462;6.698;2023-03-01T03:19:13;-1.73;79.14
67862;DHT22;54665;51.462;6.698;2023-03-01T03:21:39;-1.73;79.24
67862;DHT22;54665;51.462;6.698;2023-03-01T03:24:04;-1.76;79.40
67862;DHT22;54665;51.462;6.698;2023-03-01T03:26:31;-1.84;79.50
67862;DHT22;54665;51.462;6.698;2023-03-01T03:28:57;-1.90;79.27
67862;DHT22;54665;51.462;6.698;2023-03-01T03:31:22;-1.86;79.64
67862;DHT22;54665;51.462;6.698;2023-03-01T03:33:48;-1.87;79.43
67862;DHT22;54665;51.462;6.698;2023-03-01T03:36:18;-1.87;79.41
67862;DHT22;54665;51.462;6.698;2023-03-01T03:38:44;-1.90;79.09
67862;DHT22;54665;51.462;6.698;2023-03-01T03:41:11;-1.95;79.31
67862;DHT22;54665;51.462;6.698;2023-03-01T03:43:39;-2.01;79.18
67862;DHT22;54665;51.462;6.698;2023-03-01T03:46:06;-1.90;79.80
67862;DHT22;54665;51.462;6.698;2023-03-01T03:48:37;-1.90;79.95
67862;DHT22;54665;51.462;6.698;2023-03-01T03:51:02;-1.91;79.74
67862;DHT22;54665;51.462;6.698;2023-03-01T03:53:31;-1.98;79.64
67862;DHT22;54665;51.462;6.698;2023-03-01T03:55:56;-1.86;80.12
67862;DHT22;54665;51.462;6.698;2023-03-01T03:58:24;-1.69;79.20
67862;DHT22;54665;51.462;6.698;2023-03-01T04:00:52;-1.66;78.83
67862;DHT22;54665;51.462;6.698;2023-03-01T04:03:18;-1.59;78.60
67862;DHT22;54665;51.462;6.698;2023-03-01T04:05:45;-1.55;78.44
67862;DHT22;54665;51.462;6.698;2023-03-01T04:08:11;-1.55;77.94
67862;DHT22;54665;51.462;6.698;2023-03-01T04:10:39;-1.66;77.98
67862;DHT22;54665;51.462;6.698;2023-03-01T04:13:06;-1.59;77.84
67862;DHT22;54665;51.462;6.698;2023-03-01T04:15:32;-1.58;77.99
67862;DHT22;54665;51.462;6.698;2023-03-01T04:17:58;-1.49;77.93
67862;DHT22;54665;51.462;6.698;2023-03-01T04:20:27;-1.48;77.68
67862;DHT22;54665;51.462;6.698;2023-03-01T04:23:02;-1.36;77.18
67862;DHT22;54665;51.462;6.698;2023-03-01T04:25:58;-1.38;77.11
67862;DHT22;54665;51.462;6.698;2023-03-01T04:28:32;-1.28;77.13
67862;DHT22;54665;51.462;6.698;2023-03-01T04:31:23;-1.27;76.73
67862;DHT22;54665;51.462;6.698;2023-03-01T04:33:53;-1.27;76.64
67862;DHT22;54665;51.462;6.698;2023-03-01T04:36:20;-1.25;76.57
67862;DHT22;54665;51.462;6.698;2023-03-01T04:38:46;-1.20;76.60
67862;DHT22;54665;51.462;6.698;2023-03-01T04:41:16;-1.29;76.28
67862;DHT22;54665;51.462;6.698;2023-03-01T04:43:42;-1.45;76.63
67862;DHT22;54665;51.462;6.698;2023-03-01T04:46:10;-1.49;77.27
67862;DHT22;54665;51.462;6.698;2023-03-01T04:48:37;-1.39;76.93
67862;DHT22;54665;51.462;6.698;2023-03-01T04:51:03;-1.55;76.70
67862;DHT22;54665;51.462;6.698;2023-03-01T04:53:29;-1.62;77.50
67862;DHT22;54665;51.462;6.698;2023-03-01T04:55:55;-1.62;77.68
67862;DHT22;54665;51.462;6.698;2023-03-01T04:58:25;-1.55;77.81
67862;DHT22;54665;51.462;6.698;2023-03-01T05:00:52;-1.46;77.51
67862;DHT22;54665;51.462;6.698;2023-03-01T05:03:17;-1.46;77.42
67862;DHT22;54665;51.462;6.698;2023-03-01T05:05:44;-1.43;77.25
67862;DHT22;54665;51.462;6.698;2023-03-01T05:08:10;-1.52;77.35
67862;DHT22;54665;51.462;6.698;2023-03-01T05:10:44;-1.45;77.66
67862;DHT22;54665;51.462;6.698;2023-03-01T05:13:11;-1.49;77.36
67862;DHT22;54665;51.462;6.698;2023-03-01T05:15:39;-1.46;77.45
67862;DHT22;54665;51.462;6.698;2023-03-01T05:18:04;-1.59;77.88
67862;DHT22;54665;51.462;6.698;2023-03-01T05:20:36;-1.71;78.49
67862;DHT22;54665;51.462;6.698;2023-03-01T05:23:02;-1.67;79.05
67862;DHT22;54665;51.462;6.698;2023-03-01T05:25:31;-1.56;78.76
67862;DHT22;54665;51.462;6.698;2023-03-01T05:28:02;-1.58;78.42
67862;DHT22;54665;51.462;6.698;2023-03-01T05:30:34;-1.64;78.79
67862;DHT22;54665;51.462;6.698;2023-03-01T05:33:00;-1.63;78.61
67862;DHT22;54665;51.462;6.698;2023-03-01T05:35:25;-1.59;78.80
67862;DHT22;54665;51.462;6.698;2023-03-01T05:37:51;-1.64;78.38
67862;DHT22;54665;51.462;6.698;2023-03-01T05:40:19;-1.69;78.41
67862;DHT22;54665;51.462;6.698;2023-03-01T05:42:56;-1.63;78.16
67862;DHT22;54665;51.462;6.698;2023-03-01T05:45:24;-1.76;78.34
67862;DHT22;54665;51.462;6.698;2023-03-01T05:47:50;-1.73;78.99
67862;DHT22;54665;51.462;6.698;2023-03-01T05:50:18;-1.63;78.30
67862;DHT22;54665;51.462;6.698;2023-03-01T05:53:07;-1.70;78.90
67862;DHT22;54665;51.462;6.698;2023-03-01T05:55:32;-1.83;78.77
67862;DHT22;54665;51.462;6.698;2023-03-01T05:57:59;-1.77;78.80
67862;DHT22;54665;51.462;6.698;2023-03-01T06:00:24;-1.77;79.10
67862;DHT22;54665;51.462;6.698;2023-03-01T06:02:50;-1.58;78.41
67862;DHT22;54665;51.462;6.698;2023-03-01T06:05:17;-1.48;77.91
67862;DHT22;54665;51.462;6.698;2023-03-01T06:07:43;-1.39;77.56
67862;DHT22;54665;51.462;6.698;2023-03-01T06:10:10;-1.36;77.50
67862;DHT22;54665;51.462;6.698;2023-03-01T06:12:37;-1.42;77.42
67862;DHT22;54665;51.462;6.698;2023-03-01T06:15:03;-1.34;77.11
67862;DHT22;54665;51.462;6.698;2023-03-01T06:17:30;-1.38;77.11
67862;DHT22;54665;51.462;6.698;2023-03-01T06:19:56;-1.38;77.05
67862;DHT22;54665;51.462;6.698;2023-03-01T06:22:22;-1.29;77.14
67862;DHT22;54665;51.462;6.698;2023-03-01T06:24:47;-1.29;76.70
67862;DHT22;54665;51.462;6.698;2023-03-01T06:27:13;-1.32;76.70
67862;DHT22;54665;51.462;6.698;2023-03-01T06:29:38;-1.40;76.73
67862;DHT22;54665;51.462;6.698;2023-03-01T06:32:03;-1.38;76.76
67862;DHT22;54665;51.462;6.698;2023-03-01T06:34:30;-1.43;76.97
67862;DHT22;54665;51.462;6.698;2023-03-01T06:36:55;-1.40;76.97
67862;DHT22;54665;51.462;6.698;2023-03-01T06:39:21;-1.40;77.04
67862;DHT22;54665;51.462;6.698;2023-03-01T06:41:47;-1.34;77.04
67862;DHT22;54665;51.462;6.698;2023-03-01T06:44:12;-1.31;76.91
67862;DHT22;54665;51.462;6.698;2023-03-01T06:46:39;-1.28;76.88
67862;DHT22;54665;51.462;6.698;2023-03-01T06:49:04;-1.18;77.21
67862;DHT22;54665;51.462;6.698;2023-03-01T06:51:34;-1.08;76.77
67862;DHT22;54665;51.462;6.698;2023-03-01T06:54:00;-1.07;76.30
67862;DHT22;54665;51.462;6.698;2023-03-01T06:56:25;-1.11;76.63
67862;DHT22;54665;51.462;6.698;2023-03-01T06:58:50;-1.02;76.25
67862;DHT22;54665;51.462;6.698;2023-03-01T07:01:16;-1.05;76.39
67862;DHT22;54665;51.462;6.698;2023-03-01T07:03:41;-0.84;75.63
67862;DHT22;54665;51.462;6.698;2023-03-01T07:06:09;-0.95;76.31
67862;DHT22;54665;51.462;6.698;2023-03-01T07:08:35;-0.88;76.20
67862;DHT22;54665;51.462;6.698;2023-03-01T07:11:00;-0.77;75.40
67862;DHT22;54665;51.462;6.698;2023-03-01T07:13:27;-0.70;75.42
67862;DHT22;54665;51.462;6.698;2023-03-01T07:15:53;-0.70;75.32
67862;DHT22;54665;51.462;6.698;2023-03-01T07:18:18;-0.71;75.56
67862;DHT22;54665;51.462;6.698;2023-03-01T07:20:44;-0.66;75.26
67862;DHT22;54665;51.462;6.698;2023-03-01T07:23:09;-0.71;75.69
67862;DHT22;54665;51.462;6.698;2023-03-01T07:25:35;-0.53;74.94
67862;DHT22;54665;51.462;6.698;2023-03-01T07:28:00;-0.46;75.02
67862;DHT22;54665;51.462;6.698;2023-03-01T07:30:26;-0.43;74.72
67862;DHT22;54665;51.462;6.698;2023-03-01T07:32:54;-0.44;74.57
67862;DHT22;54665;51.462;6.698;2023-03-01T07:35:19;-0.43;74.49
67862;DHT22;54665;51.462;6.698;2023-03-01T07:37:45;-0.17;74.17
67862;DHT22;54665;51.462;6.698;2023-03-01T07:40:11;-0.20;73.95
67862;DHT22;54665;51.462;6.698;2023-03-01T07:42:37;-0.20;73.60
67862;DHT22;54665;51.462;6.698;2023-03-01T07:45:03;-0.13;73.30
67862;DHT22;54665;51.462;6.698;2023-03-01T07:47:29;-0.01;73.10
67862;DHT22;54665;51.462;6.698;2023-03-01T07:49:54;0.01;73.03
67862;DHT22;54665;51.462;6.698;2023-03-01T07:52:19;0.21;72.74
67862;DHT22;54665;51.462;6.698;2023-03-01T07:54:45;0.26;73.11
67862;DHT22;54665;51.462;6.698;2023-03-01T07:57:11;0.26;72.31
67862;DHT22;54665;51.462;6.698;2023-03-01T07:59:36;0.26;71.48
67862;DHT22;54665;51.462;6.698;2023-03-01T08:02:02;0.53;71.31
67862;DHT22;54665;51.462;6.698;2023-03-01T08:04:27;1.00;70.39
67862;DHT22;54665;51.462;6.698;2023-03-01T08:06:56;1.76;69.08
67862;DHT22;54665;51.462;6.698;2023-03-01T08:09:22;3.23;65.04
67862;DHT22;54665;51.462;6.698;2023-03-01T08:11:47;4.01;60.07
67862;DHT22;54665;51.462;6.698;2023-03-01T08:14:12;4.31;59.59
67862;DHT22;54665;51.462;6.698;2023-03-01T08:16:38;3.80;61.37
67862;DHT22;54665;51.462;6.698;2023-03-01T08:19:11;3.98;61.14
67862;DHT22;54665;51.462;6.698;2023-03-01T08:21:37;4.08;60.13
67862;DHT22;54665;51.462;6.698;2023-03-01T08:24:04;4.59;58.42
67862;DHT22;54665;51.462;6.698;2023-03-01T08:26:29;5.07;58.36
67862;DHT22;54665;51.462;6.698;2023-03-01T08:28:55;5.28;57.24
67862;DHT22;54665;51.462;6.698;2023-03-01T08:31:25;5.51;56.54
67862;DHT22;54665;51.462;6.698;2023-03-01T08:33:54;6.03;54.63
67862;DHT22;54665;51.462;6.698;2023-03-01T08:36:25;5.95;55.42
67862;DHT22;54665;51.462;6.698;2023-03-01T08:38:51;6.82;53.77
67862;DHT22;54665;51.462;6.698;2023-03-01T08:41:17;7.16;51.66
67862;DHT22;54665;51.462;6.698;2023-03-01T08:43:43;7.15;50.29
67862;DHT22;54665;51.462;6.698;2023-03-01T08:46:09;6.79;52.56
67862;DHT22;54665;51.462;6.698;2023-03-01T08:48:35;6.16;52.79
67862;DHT22;54665;51.462;6.698;2023-03-01T08:51:14;5.82;54.52
67862;DHT22;54665;51.462;6.698;2023-03-01T08:53:40;5.15;55.62
67862;DHT22;54665;51.462;6.698;2023-03-01T08:56:07;4.57;56.98
67862;DHT22;54665;51.462;6.698;2023-03-01T08:58:32;4.49;58.18
67862;DHT22;54665;51.462;6.698;2023-03-01T09:00:58;4.70;57.31
67862;DHT22;54665;51.462;6.698;2023-03-01T09:03:24;5.37;55.43
67862;DHT22;54665;51.462;6.698;2023-03-01T09:05:50;5.58;54.83
67862;DHT22;54665;51.462;6.698;2023-03-01T09:08:19;5.28;55.20
67862;DHT22;54665;51.462;6.698;2023-03-01T09:10:45;5.28;55.96
67862;DHT22;54665;51.462;6.698;2023-03-01T09:13:11;5.25;56.00
67862;DHT22;54665;51.462;6.698;2023-03-01T09:15:37;6.37;53.84
67862;DHT22;54665;51.462;6.698;2023-03-01T09:18:03;6.81;50.86
67862;DHT22;54665;51.462;6.698;2023-03-01T09:20:30;7.44;48.78
67862;DHT22;54665;51.462;6.698;2023-03-01T09:22:56;7.66;48.95
67862;DHT22;54665;51.462;6.698;2023-03-01T09:25:22;8.02;48.65
67862;DHT22;54665;51.462;6.698;2023-03-01T09:27:51;8.01;47.48
67862;DHT22;54665;51.462;6.698;2023-03-01T09:30:16;8.38;47.12
67862;DHT22;54665;51.462;6.698;2023-03-01T09:32:42;8.39;47.86
67862;DHT22;54665;51.462;6.698;2023-03-01T09:35:08;7.51;46.79
67862;DHT22;54665;51.462;6.698;2023-03-01T09:37:35;8.31;46.95
67862;DHT22;54665;51.462;6.698;2023-03-01T09:40:01;7.77;47.60
67862;DHT22;54665;51.462;6.698;2023-03-01T09:42:28;7.42;48.42
67862;DHT22;54665;51.462;6.698;2023-03-01T09:45:00;7.13;48.49
67862;DHT22;54665;51.462;6.698;2023-03-01T09:47:29;6.93;50.58
67862;DHT22;54665;51.462;6.698;2023-03-01T09:52:42;6.78;50.10
67862;DHT22;54665;51.462;6.698;2023-03-01T09:55:34;7.26;49.89
67862;DHT22;54665;51.462;6.698;2023-03-01T10:00:57;7.64;49.18
67862;DHT22;54665;51.462;6.698;2023-03-01T10:06:21;6.89;49.38
67862;DHT22;54665;51.462;6.698;2023-03-01T10:08:58;6.84;49.64
67862;DHT22;54665;51.462;6.698;2023-03-01T10:11:29;7.02;49.04
67862;DHT22;54665;51.462;6.698;2023-03-01T10:14:06;6.79;49.84
67862;DHT22;54665;51.462;6.698;2023-03-01T10:19:03;7.24;48.50
67862;DHT22;54665;51.462;6.698;2023-03-01T10:21:29;7.69;47.86
67862;DHT22;54665;51.462;6.698;2023-03-01T10:24:08;7.84;47.62
67862;DHT22;54665;51.462;6.698;2023-03-01T10:27:00;7.46;46.26
67862;DHT22;54665;51.462;6.698;2023-03-01T10:29:39;7.08;47.18
67862;DHT22;54665;51.462;6.698;2023-03-01T10:32:05;7.08;47.72
67862;DHT22;54665;51.462;6.698;2023-03-01T10:34:34;7.33;47.07
67862;DHT22;54665;51.462;6.698;2023-03-01T10:37:13;7.59;47.10
67862;DHT22;54665;51.462;6.698;2023-03-01T10:40:07;7.64;47.47
67862;DHT22;54665;51.462;6.698;2023-03-01T10:42:46;7.37;47.90
67862;DHT22;54665;51.462;6.698;2023-03-01T10:45:30;7.05;48.29
67862;DHT22;54665;51.462;6.698;2023-03-01T10:48:18;7.02;48.51
67862;DHT22;54665;51.462;6.698;2023-03-01T10:51:06;7.32;47.10
67862;DHT22;54665;51.462;6.698;2023-03-01T10:53:38;7.64;46.35
67862;DHT22;54665;51.462;6.698;2023-03-01T10:56:13;7.73;46.30
67862;DHT22;54665;51.462;6.698;2023-03-01T10:58:41;7.46;46.66
67862;DHT22;54665;51.462;6.698;2023-03-01T11:06:28;7.37;46.58
67862;DHT22;54665;51.462;6.698;2023-03-01T11:08:53;7.78;45.33
67862;DHT22;54665;51.462;6.698;2023-03-01T11:13:54;8.70;43.80
67862;DHT22;54665;51.462;6.698;2023-03-01T11:16:29;8.74;44.90
67862;DHT22;54665;51.462;6.698;2023-03-01T11:21:44;7.95;44.93
67862;DHT22;54665;51.462;6.698;2023-03-01T11:24:14;7.84;43.52
67862;DHT22;54665;51.462;6.698;2023-03-01T11:26:42;7.56;45.24
67862;DHT22;54665;51.462;6.698;2023-03-01T11:29:21;7.88;44.44
67862;DHT22;54665;51.462;6.698;2023-03-01T11:31:48;8.02;45.45
67862;DHT22;54665;51.462;6.698;2023-03-01T11:34:20;8.33;44.36
67862;DHT22;54665;51.462;6.698;2023-03-01T11:36:55;8.59;43.78
67862;DHT22;54665;51.462;6.698;2023-03-01T11:39:36;8.48;44.30
67862;DHT22;54665;51.462;6.698;2023-03-01T11:42:17;8.45;42.80
67862;DHT22;54665;51.462;6.698;2023-03-01T11:44:46;8.84;42.69
67862;DHT22;54665;51.462;6.698;2023-03-01T11:50:18;8.84;42.78
67862;DHT22;54665;51.462;6.698;2023-03-01T11:55:59;8.96;43.00
67862;DHT22;54665;51.462;6.698;2023-03-01T11:58:38;8.64;43.88
67862;DHT22;54665;51.462;6.698;2023-03-01T12:03:55;9.14;42.58
67862;DHT22;54665;51.462;6.698;2023-03-01T12:09:13;8.33;43.90
67862;DHT22;54665;51.462;6.698;2023-03-01T12:20:20;8.63;42.83
67862;DHT22;54665;51.462;6.698;2023-03-01T12:22:51;8.53;42.97
67862;DHT22;54665;51.462;6.698;2023-03-01T12:25:27;8.56;43.00
67862;DHT22;54665;51.462;6.698;2023-03-01T12:28:37;8.73;42.04
67862;DHT22;54665;51.462;6.698;2023-03-01T12:36:58;9.28;42.56
67862;DHT22;54665;51.462;6.698;2023-03-01T12:39:55;9.00;41.26
67862;DHT22;54665;51.462;6.698;2023-03-01T12:50:54;9.21;43.28
67862;DHT22;54665;51.462;6.698;2023-03-01T12:53:25;9.15;43.32
67862;DHT22;54665;51.462;6.698;2023-03-01T12:55:53;8.99;42.26
67862;DHT22;54665;51.462;6.698;2023-03-01T13:09:39;9.08;42.93
67862;DHT22;54665;51.462;6.698;2023-03-01T13:17:50;8.74;43.43
67862;DHT22;54665;51.462;6.698;2023-03-01T13:20:19;8.72;44.25
67862;DHT22;54665;51.462;6.698;2023-03-01T13:22:46;9.20;43.47
67862;DHT22;54665;51.462;6.698;2023-03-01T13:25:19;9.24;42.50
67862;DHT22;54665;51.462;6.698;2023-03-01T13:27:46;9.37;43.22
67862;DHT22;54665;51.462;6.698;2023-03-01T13:30:38;9.37;42.39
67862;DHT22;54665;51.462;6.698;2023-03-01T13:35:56;9.23;42.65
67862;DHT22;54665;51.462;6.698;2023-03-01T13:38:46;9.58;42.48
67862;DHT22;54665;51.462;6.698;2023-03-01T13:41:14;9.78;40.09
67862;DHT22;54665;51.462;6.698;2023-03-01T13:43:42;9.83;40.08
67862;DHT22;54665;51.462;6.698;2023-03-01T13:46:17;10.09;41.38
67862;DHT22;54665;51.462;6.698;2023-03-01T13:48:49;10.05;41.60
67862;DHT22;54665;51.462;6.698;2023-03-01T13:51:16;9.48;42.36
67862;DHT22;54665;51.462;6.698;2023-03-01T13:53:46;9.97;43.39
67862;DHT22;54665;51.462;6.698;2023-03-01T13:56:33;9.81;42.66
67862;DHT22;54665;51.462;6.698;2023-03-01T13:59:21;9.35;43.63
67862;DHT22;54665;51.462;6.698;2023-03-01T14:01:58;9.14;43.59
67862;DHT22;54665;51.462;6.698;2023-03-01T14:04:28;9.14;43.02
67862;DHT22;54665;51.462;6.698;2023-03-01T14:07:18;9.20;43.24
67862;DHT22;54665;51.462;6.698;2023-03-01T14:09:45;9.41;43.21
67862;DHT22;54665;51.462;6.698;2023-03-01T14:15:37;9.59;42.33
67862;DHT22;54665;51.462;6.698;2023-03-01T14:18:21;9.76;42.41
67862;DHT22;54665;51.462;6.698;2023-03-01T14:20:48;9.74;43.69
67862;DHT22;54665;51.462;6.698;2023-03-01T14:23:20;9.21;42.34
67862;DHT22;54665;51.462;6.698;2023-03-01T14:25:48;9.35;42.34
67862;DHT22;54665;51.462;6.698;2023-03-01T14:28:18;9.25;42.05
67862;DHT22;54665;51.462;6.698;2023-03-01T14:30:47;8.69;42.91
67862;DHT22;54665;51.462;6.698;2023-03-01T14:33:20;8.72;42.65
67862;DHT22;54665;51.462;6.698;2023-03-01T14:38:34;8.56;43.72
67862;DHT22;54665;51.462;6.698;2023-03-01T14:41:05;8.25;43.53
67862;DHT22;54665;51.462;6.698;2023-03-01T14:43:32;8.21;43.49
67862;DHT22;54665;51.462;6.698;2023-03-01T14:45:57;8.16;44.15
67862;DHT22;54665;51.462;6.698;2023-03-01T14:48:23;8.28;44.09
67862;DHT22;54665;51.462;6.698;2023-03-01T14:50:49;8.39;44.23
67862;DHT22;54665;51.462;6.698;2023-03-01T14:53:19;8.35;43.61
67862;DHT22;54665;51.462;6.698;2023-03-01T14:55:56;8.45;43.28
67862;DHT22;54665;51.462;6.698;2023-03-01T14:58:25;8.18;44.40
67862;DHT22;54665;51.462;6.698;2023-03-01T15:00:54;8.28;43.14
67862;DHT22;54665;51.462;6.698;2023-03-01T15:05:51;8.16;44.14
67862;DHT22;54665;51.462;6.698;2023-03-01T15:08:21;8.08;44.97
67862;DHT22;54665;51.462;6.698;2023-03-01T15:11:00;7.83;44.83
67862;DHT22;54665;51.462;6.698;2023-03-01T15:13:41;8.05;44.38
67862;DHT22;54665;51.462;6.698;2023-03-01T15:16:12;8.12;44.62
67862;DHT22;54665;51.462;6.698;2023-03-01T15:18:44;7.98;43.70
67862;DHT22;54665;51.462;6.698;2023-03-01T15:21:26;7.94;43.64
67862;DHT22;54665;51.462;6.698;2023-03-01T15:26:32;7.85;43.74
67862;DHT22;54665;51.462;6.698;2023-03-01T15:29:00;7.78;44.29
67862;DHT22;54665;51.462;6.698;2023-03-01T15:31:36;7.85;45.25
67862;DHT22;54665;51.462;6.698;2023-03-01T15:34:32;7.69;45.09
67862;DHT22;54665;51.462;6.698;2023-03-01T15:36:59;7.73;45.21
67862;DHT22;54665;51.462;6.698;2023-03-01T15:39:42;7.81;44.72
67862;DHT22;54665;51.462;6.698;2023-03-01T15:42:13;7.61;44.78
67862;DHT22;54665;51.462;6.698;2023-03-01T15:44:40;7.78;44.70
67862;DHT22;54665;51.462;6.698;2023-03-01T15:47:28;7.71;44.52
67862;DHT22;54665;51.462;6.698;2023-03-01T15:49:55;7.63;44.93
67862;DHT22;54665;51.462;6.698;2023-03-01T15:52:28;7.51;44.71
67862;DHT22;54665;51.462;6.698;2023-03-01T15:55:00;7.57;44.85
67862;DHT22;54665;51.462;6.698;2023-03-01T15:57:26;7.60;45.41
67862;DHT22;54665;51.462;6.698;2023-03-01T15:59:52;7.56;45.01
67862;DHT22;54665;51.462;6.698;2023-03-01T16:02:18;7.34;45.20
67862;DHT22;54665;51.462;6.698;2023-03-01T16:04:46;7.32;45.66
67862;DHT22;54665;51.462;6.698;2023-03-01T16:07:12;7.32;46.46
67862;DHT22;54665;51.462;6.698;2023-03-01T16:09:38;7.08;45.49
67862;DHT22;54665;51.462;6.698;2023-03-01T16:12:03;7.09;46.42
67862;DHT22;54665;51.462;6.698;2023-03-01T16:14:29;7.01;46.21
67862;DHT22;54665;51.462;6.698;2023-03-01T16:16:55;6.98;47.13
67862;DHT22;54665;51.462;6.698;2023-03-01T16:19:20;6.81;47.29
67862;DHT22;54665;51.462;6.698;2023-03-01T16:21:45;6.60;48.29
67862;DHT22;54665;51.462;6.698;2023-03-01T16:24:12;6.67;48.30
67862;DHT22;54665;51.462;6.698;2023-03-01T16:26:38;6.57;48.25
67862;DHT22;54665;51.462;6.698;2023-03-01T16:29:04;6.57;47.98
67862;DHT22;54665;51.462;6.698;2023-03-01T16:31:29;6.61;48.77
67862;DHT22;54665;51.462;6.698;2023-03-01T16:33:57;6.64;48.34
67862;DHT22;54665;51.462;6.698;2023-03-01T16:36:24;6.55;48.87
67862;DHT22;54665;51.462;6.698;2023-03-01T16:38:51;6.45;49.08
67862;DHT22;54665;51.462;6.698;2023-03-01T16:41:18;6.30;49.93
67862;DHT22;54665;51.462;6.698;2023-03-01T16:43:44;6.36;49.70
67862;DHT22;54665;51.462;6.698;2023-03-01T16:46:17;6.29;50.32
67862;DHT22;54665;51.462;6.698;2023-03-01T16:48:43;6.16;50.81
67862;DHT22;54665;51.462;6.698;2023-03-01T16:51:09;6.03;50.37
67862;DHT22;54665;51.462;6.698;2023-03-01T16:53:35;6.16;49.92
67862;DHT22;54665;51.462;6.698;2023-03-01T16:56:05;6.13;50.07
67862;DHT22;54665;51.462;6.698;2023-03-01T16:58:31;6.05;51.44
67862;DHT22;54665;51.462;6.698;2023-03-01T17:01:04;5.90;50.96
67862;DHT22;54665;51.462;6.698;2023-03-01T17:03:30;5.83;51.13
67862;DHT22;54665;51.462;6.698;2023-03-01T17:05:56;5.85;50.72
67862;DHT22;54665;51.462;6.698;2023-03-01T17:08:21;5.78;51.53
67862;DHT22;54665;51.462;6.698;2023-03-01T17:10:46;5.70;51.89
67862;DHT22;54665;51.462;6.698;2023-03-01T17:13:12;5.73;51.87
67862;DHT22;54665;51.462;6.698;2023-03-01T17:15:38;5.56;52.28
67862;DHT22;54665;51.462;6.698;2023-03-01T17:18:05;5.63;52.16
67862;DHT22;54665;51.462;6.698;2023-03-01T17:20:30;5.60;51.87
67862;DHT22;54665;51.462;6.698;2023-03-01T17:22:56;5.68;52.02
67862;DHT22;54665;51.462;6.698;2023-03-01T17:25:21;5.51;52.49
67862;DHT22;54665;51.462;6.698;2023-03-01T17:27:46;5.51;52.47